Aviation Digital Data Service (ADDS)

Output produced by METARs form (1522 UTC 31 July 2015)
found at http://aviationweather.gov/adds/metars/
 
KACK 311120Z 3112/0112 26005KT 6SM BR BKN060 
     FM311300 26008KT P6SM SCT250 
     FM011100 22006KT 6SM BR FEW250